EZY905X EGKK-EGPF
Flight info
| Callsign | EZY905X |
|---|---|
| Flight time | 1h 0m |
| Altitude | 38000 |
| Route | LAM L10 BPK UN601 RIBEL DCT ASLIB |
| Aircraft | A21N/M-SDE2E3FGHIRWXY/LB1 |
Departure
| Time | 2026-05-07 18:51 |
|---|---|
| Airport | London Gatwick Airport (EGKK) |
Arrival
| Time | 2026-05-07 19:51 |
|---|---|
| Airport | Glasgow Airport (EGPF) |
| Time | Latitude | Longitude | Altitude | Speed | Heading |
|---|---|---|---|---|---|
| 2026-05-07 18:03 | 51.15860 | -0.17945 | 209 ft | 0 kts | 78° |
| 2026-05-07 18:31 | 51.15857 | -0.17966 | 209 ft | 4 kts | 78° |
| 2026-05-07 18:32 | 51.15852 | -0.18004 | 212 ft | 4 kts | 78° |
| 2026-05-07 18:32 | 51.15848 | -0.18037 | 213 ft | 4 kts | 82° |
| 2026-05-07 18:32 | 51.15849 | -0.18073 | 212 ft | 4 kts | 130° |
| 2026-05-07 18:32 | 51.15868 | -0.18087 | 217 ft | 4 kts | 168° |
| 2026-05-07 18:33 | 51.15881 | -0.18091 | 212 ft | 0 kts | 168° |
| 2026-05-07 18:35 | 51.15877 | -0.18090 | 217 ft | 1 kts | 167° |
| 2026-05-07 18:35 | 51.15861 | -0.18084 | 211 ft | 3 kts | 167° |
| 2026-05-07 18:35 | 51.15835 | -0.18075 | 210 ft | 4 kts | 167° |
| 2026-05-07 18:36 | 51.15802 | -0.18063 | 213 ft | 5 kts | 167° |
| 2026-05-07 18:36 | 51.15765 | -0.18050 | 209 ft | 0 kts | 167° |
| 2026-05-07 18:36 | 51.15758 | -0.18047 | 213 ft | 2 kts | 167° |
| 2026-05-07 18:37 | 51.15739 | -0.18040 | 212 ft | 4 kts | 166° |
| 2026-05-07 18:37 | 51.15704 | -0.18039 | 209 ft | 7 kts | 205° |
| 2026-05-07 18:37 | 51.15675 | -0.18121 | 214 ft | 10 kts | 255° |
| 2026-05-07 18:37 | 51.15657 | -0.18238 | 213 ft | 11 kts | 257° |
| 2026-05-07 18:38 | 51.15640 | -0.18368 | 209 ft | 10 kts | 257° |
| 2026-05-07 18:38 | 51.15623 | -0.18502 | 210 ft | 14 kts | 257° |
| 2026-05-07 18:38 | 51.15601 | -0.18658 | 212 ft | 15 kts | 257° |
| 2026-05-07 18:38 | 51.15571 | -0.18804 | 215 ft | 15 kts | 213° |
| 2026-05-07 18:39 | 51.15468 | -0.18802 | 213 ft | 12 kts | 165° |
| 2026-05-07 18:39 | 51.15377 | -0.18767 | 215 ft | 14 kts | 167° |
| 2026-05-07 18:39 | 51.15272 | -0.18728 | 214 ft | 16 kts | 167° |
| 2026-05-07 18:39 | 51.15167 | -0.18694 | 212 ft | 12 kts | 182° |
| 2026-05-07 18:40 | 51.15120 | -0.18792 | 208 ft | 12 kts | 259° |
| 2026-05-07 18:40 | 51.15102 | -0.18934 | 214 ft | 14 kts | 258° |
| 2026-05-07 18:40 | 51.15080 | -0.19096 | 211 ft | 15 kts | 258° |
| 2026-05-07 18:40 | 51.15061 | -0.19234 | 209 ft | 9 kts | 257° |
| 2026-05-07 18:41 | 51.15045 | -0.19348 | 210 ft | 12 kts | 257° |
| 2026-05-07 18:41 | 51.15025 | -0.19488 | 215 ft | 14 kts | 258° |
| 2026-05-07 18:41 | 51.15003 | -0.19650 | 212 ft | 16 kts | 257° |
| 2026-05-07 18:41 | 51.14977 | -0.19832 | 211 ft | 18 kts | 257° |
| 2026-05-07 18:42 | 51.14949 | -0.20033 | 211 ft | 19 kts | 257° |
| 2026-05-07 18:42 | 51.14919 | -0.20251 | 209 ft | 21 kts | 257° |
| 2026-05-07 18:42 | 51.14888 | -0.20476 | 208 ft | 21 kts | 258° |
| 2026-05-07 18:42 | 51.14856 | -0.20706 | 212 ft | 22 kts | 257° |
| 2026-05-07 18:43 | 51.14822 | -0.20952 | 216 ft | 24 kts | 257° |
| 2026-05-07 18:43 | 51.14801 | -0.21106 | 214 ft | 13 kts | 257° |
| 2026-05-07 18:43 | 51.14774 | -0.21253 | 209 ft | 15 kts | 256° |
| 2026-05-07 18:43 | 51.14765 | -0.21314 | 212 ft | 0 kts | 257° |
| 2026-05-07 18:48 | 51.14765 | -0.21316 | 211 ft | 1 kts | 257° |
| 2026-05-07 18:48 | 51.14761 | -0.21346 | 209 ft | 4 kts | 255° |
| 2026-05-07 18:48 | 51.14737 | -0.21393 | 209 ft | 7 kts | 202° |
| 2026-05-07 18:48 | 51.14683 | -0.21386 | 215 ft | 9 kts | 147° |
| 2026-05-07 18:49 | 51.14631 | -0.21333 | 209 ft | 6 kts | 165° |
| 2026-05-07 18:49 | 51.14619 | -0.21328 | 212 ft | 0 kts | 164° |
| 2026-05-07 18:49 | 51.14606 | -0.21322 | 212 ft | 7 kts | 163° |
| 2026-05-07 18:49 | 51.14557 | -0.21290 | 211 ft | 9 kts | 144° |
| 2026-05-07 18:50 | 51.14517 | -0.21198 | 211 ft | 12 kts | 94° |
| 2026-05-07 18:50 | 51.14542 | -0.21001 | 217 ft | 37 kts | 77° |
| 2026-05-07 18:50 | 51.14649 | -0.20237 | 213 ft | 102 kts | 78° |
| 2026-05-07 18:50 | 51.14841 | -0.18841 | 212 ft | 152 kts | 78° |
| 2026-05-07 18:51 | 51.15090 | -0.17114 | 596 ft | 159 kts | 78° |
| 2026-05-07 18:51 | 51.15337 | -0.15378 | 1199 ft | 162 kts | 81° |
| 2026-05-07 18:51 | 51.15526 | -0.13600 | 1779 ft | 164 kts | 83° |
| 2026-05-07 18:51 | 51.15775 | -0.11729 | 2197 ft | 182 kts | 78° |
| 2026-05-07 18:52 | 51.16086 | -0.09646 | 2747 ft | 205 kts | 78° |
| 2026-05-07 18:52 | 51.16483 | -0.07283 | 3198 ft | 236 kts | 69° |
| 2026-05-07 18:52 | 51.17359 | -0.04952 | 3897 ft | 253 kts | 53° |
| 2026-05-07 18:52 | 51.18463 | -0.02707 | 4581 ft | 259 kts | 52° |
| 2026-05-07 18:53 | 51.19578 | -0.00440 | 4904 ft | 261 kts | 53° |
| 2026-05-07 18:53 | 51.20692 | 0.01857 | 4914 ft | 262 kts | 53° |
| 2026-05-07 18:53 | 51.21806 | 0.04157 | 4925 ft | 262 kts | 53° |
| 2026-05-07 18:53 | 51.22909 | 0.06437 | 4909 ft | 262 kts | 53° |
| 2026-05-07 18:54 | 51.24026 | 0.08736 | 4894 ft | 262 kts | 53° |
| 2026-05-07 18:54 | 51.24986 | 0.11194 | 4870 ft | 261 kts | 69° |
| 2026-05-07 18:54 | 51.25349 | 0.14015 | 4889 ft | 261 kts | 92° |
| 2026-05-07 18:54 | 51.24934 | 0.16841 | 5656 ft | 264 kts | 109° |
| 2026-05-07 18:55 | 51.24289 | 0.19604 | 6597 ft | 268 kts | 111° |
| 2026-05-07 18:55 | 51.23618 | 0.22418 | 7467 ft | 274 kts | 111° |
| 2026-05-07 18:55 | 51.22950 | 0.25305 | 8352 ft | 280 kts | 111° |
| 2026-05-07 18:55 | 51.22280 | 0.28260 | 9249 ft | 286 kts | 111° |
| 2026-05-07 18:56 | 51.21608 | 0.31284 | 10135 ft | 292 kts | 111° |
| 2026-05-07 18:56 | 51.21125 | 0.34452 | 10972 ft | 299 kts | 94° |
| 2026-05-07 18:56 | 51.21416 | 0.37747 | 11830 ft | 305 kts | 71° |
| 2026-05-07 18:56 | 51.22475 | 0.40695 | 12462 ft | 310 kts | 49° |
| 2026-05-07 18:57 | 51.24151 | 0.42867 | 12735 ft | 312 kts | 27° |
| 2026-05-07 18:57 | 51.26207 | 0.43892 | 12815 ft | 311 kts | 4° |
| 2026-05-07 18:57 | 51.28355 | 0.43598 | 12844 ft | 320 kts | 342° |
| 2026-05-07 18:57 | 51.30516 | 0.42206 | 12887 ft | 350 kts | 333° |
| 2026-05-07 18:58 | 51.32007 | 0.41042 | 12920 ft | 370 kts | 332° |
| 2026-05-07 18:58 | 51.34375 | 0.39117 | 13103 ft | 389 kts | 331° |
| 2026-05-07 18:58 | 51.37568 | 0.36477 | 13091 ft | 390 kts | 331° |
| 2026-05-07 18:58 | 51.39965 | 0.34487 | 13086 ft | 390 kts | 331° |
| 2026-05-07 18:59 | 51.41606 | 0.33123 | 13084 ft | 390 kts | 331° |
| 2026-05-07 18:59 | 51.43872 | 0.30778 | 13078 ft | 388 kts | 320° |
| 2026-05-07 18:59 | 51.45950 | 0.28030 | 13210 ft | 387 kts | 318° |
| 2026-05-07 18:59 | 51.48009 | 0.25249 | 13837 ft | 391 kts | 318° |
| 2026-05-07 19:00 | 51.50122 | 0.22420 | 14528 ft | 394 kts | 319° |
| 2026-05-07 19:00 | 51.52244 | 0.19597 | 15209 ft | 397 kts | 319° |
| 2026-05-07 19:00 | 51.54381 | 0.16765 | 15860 ft | 400 kts | 319° |
| 2026-05-07 19:00 | 51.56535 | 0.13908 | 16501 ft | 402 kts | 319° |
| 2026-05-07 19:01 | 51.58675 | 0.11068 | 17115 ft | 405 kts | 319° |
| 2026-05-07 19:01 | 51.60856 | 0.08169 | 17720 ft | 408 kts | 319° |
| 2026-05-07 19:01 | 51.63053 | 0.05249 | 18319 ft | 411 kts | 319° |
| 2026-05-07 19:01 | 51.65265 | 0.02305 | 18830 ft | 414 kts | 319° |
| 2026-05-07 19:02 | 51.67489 | -0.00665 | 19337 ft | 416 kts | 318° |
| 2026-05-07 19:02 | 51.69731 | -0.03663 | 19829 ft | 420 kts | 318° |
| 2026-05-07 19:02 | 51.71983 | -0.06679 | 20315 ft | 422 kts | 318° |
| 2026-05-07 19:02 | 51.74251 | -0.09702 | 20810 ft | 425 kts | 319° |
| 2026-05-07 19:03 | 51.76696 | -0.12448 | 21282 ft | 430 kts | 326° |
| 2026-05-07 19:03 | 51.79291 | -0.14910 | 21808 ft | 432 kts | 328° |
| 2026-05-07 19:03 | 51.81885 | -0.17315 | 22622 ft | 428 kts | 328° |
| 2026-05-07 19:03 | 51.84465 | -0.19735 | 23276 ft | 428 kts | 327° |
| 2026-05-07 19:04 | 51.87042 | -0.22182 | 23794 ft | 431 kts | 327° |
| 2026-05-07 19:04 | 51.89632 | -0.24652 | 24263 ft | 434 kts | 327° |
| 2026-05-07 19:04 | 51.92240 | -0.27151 | 24744 ft | 436 kts | 327° |
| 2026-05-07 19:04 | 51.94855 | -0.29662 | 25209 ft | 439 kts | 327° |
| 2026-05-07 19:05 | 51.97459 | -0.32156 | 25675 ft | 441 kts | 327° |
| 2026-05-07 19:05 | 52.00104 | -0.34693 | 26136 ft | 443 kts | 327° |
| 2026-05-07 19:05 | 52.02772 | -0.37255 | 26681 ft | 443 kts | 327° |
| 2026-05-07 19:05 | 52.05409 | -0.39791 | 27394 ft | 439 kts | 327° |
| 2026-05-07 19:06 | 52.08031 | -0.42320 | 27917 ft | 439 kts | 326° |
| 2026-05-07 19:06 | 52.13316 | -0.47434 | 28777 ft | 444 kts | 326° |
| 2026-05-07 19:06 | 52.15973 | -0.50010 | 29167 ft | 446 kts | 326° |
| 2026-05-07 19:07 | 52.18657 | -0.52613 | 29562 ft | 449 kts | 326° |
| 2026-05-07 19:07 | 52.21337 | -0.55214 | 30034 ft | 448 kts | 326° |
| 2026-05-07 19:07 | 52.24012 | -0.57817 | 30524 ft | 446 kts | 326° |
| 2026-05-07 19:07 | 52.26674 | -0.60411 | 30960 ft | 445 kts | 326° |
| 2026-05-07 19:08 | 52.29334 | -0.63006 | 31380 ft | 445 kts | 326° |
| 2026-05-07 19:08 | 52.31992 | -0.65604 | 31710 ft | 446 kts | 326° |
| 2026-05-07 19:08 | 52.34653 | -0.68206 | 32093 ft | 446 kts | 326° |
| 2026-05-07 19:08 | 52.37324 | -0.70824 | 32500 ft | 446 kts | 326° |
| 2026-05-07 19:09 | 52.39983 | -0.73433 | 32892 ft | 445 kts | 326° |
| 2026-05-07 19:09 | 52.42607 | -0.76006 | 33282 ft | 445 kts | 326° |
| 2026-05-07 19:09 | 52.45259 | -0.78614 | 33652 ft | 444 kts | 326° |
| 2026-05-07 19:09 | 52.47912 | -0.81229 | 34003 ft | 444 kts | 326° |
| 2026-05-07 19:10 | 52.50556 | -0.83844 | 34295 ft | 444 kts | 326° |
| 2026-05-07 19:10 | 52.53203 | -0.86464 | 34539 ft | 445 kts | 327° |
| 2026-05-07 19:10 | 52.55857 | -0.89093 | 34737 ft | 446 kts | 327° |
| 2026-05-07 19:10 | 52.58526 | -0.91737 | 34964 ft | 447 kts | 327° |
| 2026-05-07 19:11 | 52.61200 | -0.94390 | 35187 ft | 448 kts | 326° |
| 2026-05-07 19:11 | 52.63868 | -0.97036 | 35424 ft | 448 kts | 326° |
| 2026-05-07 19:11 | 52.66533 | -0.99696 | 35665 ft | 448 kts | 326° |
| 2026-05-07 19:11 | 52.69197 | -1.02360 | 35910 ft | 448 kts | 326° |
| 2026-05-07 19:12 | 52.71865 | -1.05024 | 36130 ft | 448 kts | 326° |
| 2026-05-07 19:12 | 52.74526 | -1.07686 | 36384 ft | 448 kts | 326° |
| 2026-05-07 19:12 | 52.77199 | -1.10357 | 36591 ft | 449 kts | 326° |
| 2026-05-07 19:12 | 52.79871 | -1.13034 | 36765 ft | 450 kts | 326° |
| 2026-05-07 19:13 | 52.82551 | -1.15722 | 36946 ft | 451 kts | 326° |
| 2026-05-07 19:13 | 52.85236 | -1.18415 | 37155 ft | 451 kts | 326° |
| 2026-05-07 19:13 | 52.87886 | -1.21079 | 37358 ft | 451 kts | 326° |
| 2026-05-07 19:13 | 52.90561 | -1.23780 | 37557 ft | 451 kts | 326° |
| 2026-05-07 19:14 | 52.93238 | -1.26485 | 37756 ft | 451 kts | 326° |
| 2026-05-07 19:14 | 52.95922 | -1.29198 | 37950 ft | 451 kts | 326° |
| 2026-05-07 19:14 | 52.98593 | -1.31908 | 38082 ft | 450 kts | 326° |
| 2026-05-07 19:14 | 53.01259 | -1.34614 | 38091 ft | 449 kts | 326° |
| 2026-05-07 19:15 | 53.06594 | -1.40041 | 38053 ft | 449 kts | 326° |
| 2026-05-07 19:15 | 53.11929 | -1.45477 | 38044 ft | 450 kts | 326° |
| 2026-05-07 19:16 | 53.17264 | -1.50931 | 38040 ft | 449 kts | 326° |
| 2026-05-07 19:16 | 53.22594 | -1.56397 | 38039 ft | 449 kts | 326° |
| 2026-05-07 19:17 | 53.27893 | -1.61845 | 38035 ft | 451 kts | 326° |
| 2026-05-07 19:17 | 53.33223 | -1.67346 | 38033 ft | 451 kts | 326° |
| 2026-05-07 19:18 | 53.38573 | -1.72884 | 38032 ft | 451 kts | 326° |
| 2026-05-07 19:18 | 53.43917 | -1.78442 | 38027 ft | 451 kts | 326° |
| 2026-05-07 19:19 | 53.49259 | -1.83999 | 38039 ft | 451 kts | 326° |
| 2026-05-07 19:19 | 53.54600 | -1.89566 | 38029 ft | 451 kts | 326° |
| 2026-05-07 19:20 | 53.59932 | -1.95137 | 38022 ft | 451 kts | 326° |
| 2026-05-07 19:20 | 53.65228 | -2.00701 | 38022 ft | 451 kts | 326° |
| 2026-05-07 19:21 | 53.70558 | -2.06319 | 38039 ft | 451 kts | 325° |
| 2026-05-07 19:21 | 53.76034 | -2.11501 | 38028 ft | 455 kts | 335° |
| 2026-05-07 19:22 | 53.81920 | -2.15517 | 38020 ft | 456 kts | 336° |
| 2026-05-07 19:22 | 53.87859 | -2.19546 | 38020 ft | 461 kts | 336° |
| 2026-05-07 19:23 | 53.93815 | -2.23625 | 38016 ft | 461 kts | 335° |
| 2026-05-07 19:23 | 53.99764 | -2.27721 | 38020 ft | 462 kts | 335° |
| 2026-05-07 19:24 | 54.05494 | -2.32585 | 38018 ft | 460 kts | 329° |
| 2026-05-07 19:24 | 54.11075 | -2.37833 | 38015 ft | 460 kts | 328° |
| 2026-05-07 19:25 | 54.16645 | -2.43071 | 38015 ft | 460 kts | 329° |
| 2026-05-07 19:25 | 54.22256 | -2.48363 | 38026 ft | 460 kts | 329° |
| 2026-05-07 19:26 | 54.27862 | -2.53655 | 38016 ft | 461 kts | 328° |
| 2026-05-07 19:26 | 54.33477 | -2.58985 | 38008 ft | 461 kts | 328° |
| 2026-05-07 19:27 | 54.39052 | -2.64281 | 37408 ft | 455 kts | 328° |
| 2026-05-07 19:27 | 54.41830 | -2.66934 | 36467 ft | 460 kts | 329° |
| 2026-05-07 19:27 | 54.44659 | -2.69636 | 35349 ft | 468 kts | 328° |
| 2026-05-07 19:28 | 54.47530 | -2.72378 | 34348 ft | 474 kts | 329° |
| 2026-05-07 19:28 | 54.50427 | -2.75148 | 33320 ft | 478 kts | 329° |
| 2026-05-07 19:28 | 54.53289 | -2.77891 | 32653 ft | 473 kts | 328° |
| 2026-05-07 19:28 | 54.56144 | -2.80634 | 32023 ft | 467 kts | 328° |
| 2026-05-07 19:29 | 54.58968 | -2.83351 | 31419 ft | 462 kts | 328° |
| 2026-05-07 19:29 | 54.61761 | -2.86041 | 30813 ft | 458 kts | 328° |
| 2026-05-07 19:29 | 54.64526 | -2.88709 | 30216 ft | 453 kts | 328° |
| 2026-05-07 19:29 | 54.67265 | -2.91362 | 29561 ft | 448 kts | 328° |
| 2026-05-07 19:30 | 54.69966 | -2.93979 | 28958 ft | 442 kts | 328° |
| 2026-05-07 19:30 | 54.72641 | -2.96574 | 28288 ft | 439 kts | 328° |
| 2026-05-07 19:30 | 54.75292 | -2.99149 | 27593 ft | 436 kts | 328° |
| 2026-05-07 19:30 | 54.77920 | -3.01708 | 27037 ft | 430 kts | 328° |
| 2026-05-07 19:31 | 54.80507 | -3.04229 | 26468 ft | 425 kts | 328° |
| 2026-05-07 19:31 | 54.83074 | -3.06734 | 25909 ft | 419 kts | 328° |
| 2026-05-07 19:31 | 54.85595 | -3.09199 | 25530 ft | 410 kts | 328° |
| 2026-05-07 19:31 | 54.88044 | -3.11593 | 25227 ft | 399 kts | 327° |
| 2026-05-07 19:32 | 54.90432 | -3.13935 | 24959 ft | 389 kts | 327° |
| 2026-05-07 19:32 | 54.92776 | -3.16238 | 24715 ft | 386 kts | 327° |
| 2026-05-07 19:32 | 54.95177 | -3.18608 | 24484 ft | 405 kts | 327° |
| 2026-05-07 19:32 | 54.97634 | -3.21030 | 24260 ft | 409 kts | 327° |
| 2026-05-07 19:33 | 55.00153 | -3.23514 | 23943 ft | 418 kts | 327° |
| 2026-05-07 19:33 | 55.02679 | -3.26007 | 23471 ft | 415 kts | 327° |
| 2026-05-07 19:33 | 55.05181 | -3.28480 | 22939 ft | 411 kts | 327° |
| 2026-05-07 19:33 | 55.07657 | -3.30927 | 22414 ft | 407 kts | 327° |
| 2026-05-07 19:34 | 55.10116 | -3.33366 | 21884 ft | 404 kts | 327° |
| 2026-05-07 19:34 | 55.12518 | -3.35751 | 21357 ft | 401 kts | 327° |
| 2026-05-07 19:34 | 55.14940 | -3.38160 | 20869 ft | 398 kts | 327° |
| 2026-05-07 19:34 | 55.17338 | -3.40551 | 20394 ft | 396 kts | 327° |
| 2026-05-07 19:35 | 55.19728 | -3.42935 | 19922 ft | 393 kts | 327° |
| 2026-05-07 19:35 | 55.22093 | -3.45297 | 19351 ft | 390 kts | 326° |
| 2026-05-07 19:35 | 55.24446 | -3.47649 | 18765 ft | 388 kts | 326° |
| 2026-05-07 19:35 | 55.26777 | -3.49983 | 18186 ft | 385 kts | 326° |
| 2026-05-07 19:36 | 55.29095 | -3.52306 | 17548 ft | 381 kts | 326° |
| 2026-05-07 19:36 | 55.31398 | -3.54617 | 16926 ft | 377 kts | 326° |
| 2026-05-07 19:36 | 55.33670 | -3.56905 | 16244 ft | 376 kts | 326° |
| 2026-05-07 19:36 | 55.35933 | -3.59184 | 15590 ft | 375 kts | 326° |
| 2026-05-07 19:37 | 55.38186 | -3.61454 | 15001 ft | 372 kts | 326° |
| 2026-05-07 19:37 | 55.40428 | -3.63714 | 14475 ft | 368 kts | 326° |
| 2026-05-07 19:37 | 55.42614 | -3.65921 | 14187 ft | 357 kts | 326° |
| 2026-05-07 19:37 | 55.44732 | -3.68058 | 13990 ft | 344 kts | 326° |
| 2026-05-07 19:38 | 55.46765 | -3.70115 | 13822 ft | 331 kts | 326° |
| 2026-05-07 19:38 | 55.48730 | -3.72106 | 13681 ft | 319 kts | 326° |
| 2026-05-07 19:38 | 55.50617 | -3.74020 | 13499 ft | 308 kts | 326° |
| 2026-05-07 19:38 | 55.52457 | -3.75892 | 13157 ft | 303 kts | 325° |
| 2026-05-07 19:39 | 55.54281 | -3.77756 | 12745 ft | 301 kts | 325° |
| 2026-05-07 19:39 | 55.56067 | -3.79581 | 12315 ft | 300 kts | 325° |
| 2026-05-07 19:39 | 55.57869 | -3.81421 | 11927 ft | 298 kts | 326° |
| 2026-05-07 19:39 | 55.59084 | -3.82663 | 11662 ft | 296 kts | 326° |
| 2026-05-07 19:40 | 55.61433 | -3.85065 | 11172 ft | 294 kts | 326° |
| 2026-05-07 19:40 | 55.63196 | -3.86875 | 10798 ft | 291 kts | 326° |
| 2026-05-07 19:40 | 55.64950 | -3.88672 | 10420 ft | 290 kts | 326° |
| 2026-05-07 19:40 | 55.66103 | -3.89852 | 10157 ft | 289 kts | 326° |
| 2026-05-07 19:41 | 55.67835 | -3.91630 | 9774 ft | 287 kts | 326° |
| 2026-05-07 19:41 | 55.69559 | -3.93395 | 9374 ft | 286 kts | 326° |
| 2026-05-07 19:41 | 55.71441 | -3.94610 | 8968 ft | 291 kts | 345° |
| 2026-05-07 19:41 | 55.73432 | -3.95157 | 8613 ft | 289 kts | 348° |
| 2026-05-07 19:42 | 55.75428 | -3.95602 | 8234 ft | 287 kts | 349° |
| 2026-05-07 19:42 | 55.77409 | -3.96037 | 7841 ft | 286 kts | 349° |
| 2026-05-07 19:42 | 55.79353 | -3.96468 | 7453 ft | 285 kts | 349° |
| 2026-05-07 19:42 | 55.81321 | -3.96911 | 7075 ft | 284 kts | 349° |
| 2026-05-07 19:43 | 55.83284 | -3.97357 | 6700 ft | 283 kts | 349° |
| 2026-05-07 19:43 | 55.85224 | -3.97800 | 6347 ft | 281 kts | 349° |
| 2026-05-07 19:43 | 55.87146 | -3.98247 | 6089 ft | 274 kts | 349° |
| 2026-05-07 19:43 | 55.89008 | -3.98687 | 5919 ft | 265 kts | 349° |
| 2026-05-07 19:44 | 55.90811 | -3.99108 | 5704 ft | 258 kts | 349° |
| 2026-05-07 19:44 | 55.92582 | -3.99518 | 5461 ft | 254 kts | 349° |
| 2026-05-07 19:44 | 55.94305 | -3.99912 | 5269 ft | 247 kts | 349° |
| 2026-05-07 19:44 | 55.95989 | -4.00371 | 4981 ft | 243 kts | 340° |
| 2026-05-07 19:45 | 55.97459 | -4.01703 | 4627 ft | 236 kts | 321° |
| 2026-05-07 19:45 | 55.98797 | -4.03407 | 4287 ft | 236 kts | 319° |
| 2026-05-07 19:45 | 56.00126 | -4.05142 | 3982 ft | 237 kts | 319° |
| 2026-05-07 19:45 | 56.01316 | -4.07100 | 3657 ft | 227 kts | 297° |
| 2026-05-07 19:46 | 56.01830 | -4.09660 | 3485 ft | 216 kts | 272° |
| 2026-05-07 19:46 | 56.01974 | -4.12329 | 3486 ft | 216 kts | 269° |
| 2026-05-07 19:46 | 56.01813 | -4.14940 | 3493 ft | 210 kts | 246° |
| 2026-05-07 19:46 | 56.01106 | -4.17198 | 3488 ft | 204 kts | 232° |
| 2026-05-07 19:47 | 56.00226 | -4.18988 | 3472 ft | 182 kts | 222° |
| 2026-05-07 19:47 | 55.99341 | -4.20566 | 3343 ft | 179 kts | 224° |
| 2026-05-07 19:47 | 55.98483 | -4.22161 | 3153 ft | 180 kts | 225° |
| 2026-05-07 19:47 | 55.97625 | -4.23772 | 2894 ft | 179 kts | 225° |
| 2026-05-07 19:48 | 55.96779 | -4.25364 | 2648 ft | 175 kts | 224° |
| 2026-05-07 19:48 | 55.95945 | -4.26932 | 2415 ft | 173 kts | 224° |
| 2026-05-07 19:48 | 55.95116 | -4.28488 | 2172 ft | 173 kts | 224° |
| 2026-05-07 19:48 | 55.94277 | -4.30062 | 1926 ft | 176 kts | 224° |
| 2026-05-07 19:49 | 55.93433 | -4.31647 | 1688 ft | 177 kts | 224° |
| 2026-05-07 19:49 | 55.92620 | -4.33173 | 1494 ft | 163 kts | 224° |
| 2026-05-07 19:49 | 55.91853 | -4.34611 | 1262 ft | 155 kts | 224° |
| 2026-05-07 19:49 | 55.91143 | -4.35941 | 1062 ft | 138 kts | 224° |
| 2026-05-07 19:50 | 55.90533 | -4.37084 | 852 ft | 123 kts | 223° |
| 2026-05-07 19:50 | 55.89953 | -4.38167 | 665 ft | 120 kts | 223° |
| 2026-05-07 19:50 | 55.89377 | -4.39247 | 511 ft | 119 kts | 224° |
| 2026-05-07 19:50 | 55.88798 | -4.40327 | 314 ft | 122 kts | 225° |
| 2026-05-07 19:51 | 55.88221 | -4.41411 | 172 ft | 122 kts | 225° |
| 2026-05-07 19:51 | 55.87630 | -4.42522 | 42 ft | 121 kts | 224° |
| 2026-05-07 19:51 | 55.87099 | -4.43504 | 34 ft | 91 kts | 227° |
| 2026-05-07 19:51 | 55.86778 | -4.44106 | 34 ft | 48 kts | 226° |
| 2026-05-07 19:52 | 55.86535 | -4.44470 | 34 ft | 44 kts | 205° |
| 2026-05-07 19:52 | 55.86388 | -4.44534 | 34 ft | 10 kts | 164° |
| 2026-05-07 19:52 | 55.86369 | -4.44437 | 34 ft | 11 kts | 54° |
| 2026-05-07 19:52 | 55.86429 | -4.44330 | 34 ft | 13 kts | 44° |
| 2026-05-07 19:53 | 55.86500 | -4.44202 | 34 ft | 16 kts | 46° |
| 2026-05-07 19:53 | 55.86532 | -4.44140 | 34 ft | 6 kts | 48° |
| 2026-05-07 19:53 | 55.86568 | -4.44069 | 34 ft | 9 kts | 48° |
| 2026-05-07 19:53 | 55.86602 | -4.44002 | 34 ft | 4 kts | 46° |
| 2026-05-07 19:54 | 55.86625 | -4.43959 | 34 ft | 6 kts | 46° |
| 2026-05-07 19:54 | 55.86661 | -4.43892 | 34 ft | 9 kts | 46° |
| 2026-05-07 19:54 | 55.86710 | -4.43803 | 34 ft | 11 kts | 46° |
| 2026-05-07 19:54 | 55.86748 | -4.43666 | 34 ft | 14 kts | 72° |
| 2026-05-07 19:55 | 55.86766 | -4.43532 | 34 ft | 9 kts | 75° |
| 2026-05-07 19:55 | 55.86786 | -4.43409 | 34 ft | 12 kts | 73° |
| 2026-05-07 19:55 | 55.86811 | -4.43257 | 34 ft | 14 kts | 73° |
| 2026-05-07 19:55 | 55.86838 | -4.43100 | 34 ft | 9 kts | 74° |
| 2026-05-07 19:56 | 55.86808 | -4.43004 | 34 ft | 10 kts | 148° |
| 2026-05-07 19:56 | 55.86748 | -4.42971 | 34 ft | 6 kts | 164° |
| 2026-05-07 19:56 | 55.86733 | -4.42968 | 34 ft | 1 kts | 194° |
| 2026-05-07 19:56 | 55.86725 | -4.42979 | 34 ft | 2 kts | 226° |
| 2026-05-07 19:57 | 55.86716 | -4.43008 | 34 ft | 3 kts | 249° |
| 2026-05-07 19:57 | 55.86716 | -4.43011 | 34 ft | 0 kts | 248° |
| 2026-05-07 19:57 | 55.86715 | -4.43015 | 34 ft | 1 kts | 247° |
| 2026-05-07 19:57 | 55.86710 | -4.43040 | 34 ft | 2 kts | 251° |
| 2026-05-07 19:58 | 55.86710 | -4.43043 | 34 ft | 1 kts | 252° |